Aviation Digital Data Service (ADDS)

Output produced by METARs form (1715 UTC 27 September 2016)
found at http://www.aviationweather.gov/adds/metars/
 
KJST 271654Z AUTO 27015G19KT 10SM CLR 18/04 A2996 RMK AO2 SLP140 T01780044
KJST 271554Z AUTO 24011KT 10SM CLR 17/06 A2997 RMK AO2 SLP142 T01670061
KJST 271454Z AUTO 25010G20KT 10SM CLR 16/08 A2998 RMK AO2 SLP148 T01560078 58001
KJST 271354Z AUTO 23010KT 10SM CLR 14/09 A2999 RMK AO2 SLP152 T01390094
KJST 271254Z AUTO 23008KT 10SM CLR 12/09 A2999 RMK AO2 SLP151 T01170094
KJST 271154Z AUTO 23006KT 10SM CLR 10/09 A2999 RMK AO2 SLP152 70012 T01000089 10133 20083 55000
KJST 271054Z AUTO 22004KT 10SM CLR 09/08 A2998 RMK AO2 SLP151 T00890083
KJST 270954Z AUTO 21004KT 10SM CLR 09/09 A2998 RMK AO2 SLP151 T00940089
KJST 270854Z AUTO 24005KT 10SM CLR 10/09 A2999 RMK AO2 SLP152 T01000094 58008
KJST 270754Z AUTO 25004KT 10SM CLR 11/10 A3000 RMK AO2 SLP154 T01060100
KJST 270654Z AUTO 28008KT 10SM FEW015 12/11 A3001 RMK AO2 SLP155 T01220106
KJST 270610Z AUTO 28009KT 10SM SCT013 SCT019 SCT033 13/11 A3001 RMK AO2 T01280111
KJST 270554Z AUTO 27009KT 10SM SCT010 BKN017 BKN034 13/12 A3001 RMK AO2 SLP155 60000 T01330117 10167 20133 52004
KJST 270454Z AUTO 28009G17KT 10SM BKN012 BKN018 OVC038 14/13 A3001 RMK AO2 SLP153 T01440128 402220117
KJST 270426Z AUTO 29007KT 250V310 10SM SCT009 BKN014 OVC034 14/13 A3000 RMK AO2 T01440133
KJST 270403Z AUTO 26009KT 10SM FEW008 BKN019 OVC033 15/14 A3000 RMK AO2 T01500139
KJST 270354Z AUTO 27005KT 10SM BKN012 BKN017 OVC033 15/14 A3000 RMK AO2 SLP152 T01500139
KJST 270351Z AUTO 27007KT 10SM FEW009 BKN015 OVC033 15/14 A3000 RMK AO2
KJST 270304Z AUTO 27005KT 10SM SCT013 BKN020 15/14 A3000 RMK AO2 T01500139
KJST 270254Z AUTO 27005KT 10SM BKN013 BKN018 BKN033 15/14 A3000 RMK AO2 SLP153 60000 T01500139 56002
KJST 270245Z AUTO 28008KT 10SM SCT013 SCT022 BKN033 15/14 A3000 RMK AO2 T01500139
KJST 270228Z AUTO 25009KT 10SM BKN013 BKN022 BKN034 16/14 A3000 RMK AO2 T01560144
KJST 270154Z AUTO 26006KT 10SM FEW012 BKN024 OVC036 16/15 A3000 RMK AO2 SLP153 T01560150
KJST 270145Z AUTO 26007KT 10SM FEW010 BKN029 OVC036 16/15 A3000 RMK AO2 T01560150
KJST 270134Z AUTO 27007KT 10SM FEW011 BKN030 OVC036 16/15 A3000 RMK AO2 T01610150
KJST 270102Z AUTO 28009KT 10SM FEW005 BKN016 OVC021 17/16 A3000 RMK AO2 T01670156
KJST 270054Z AUTO 30010KT 9SM FEW005 BKN013 OVC018 17/16 A3001 RMK AO2 RAE2356 SLP156 P0000 T01670161
KJST 270027Z AUTO 28007KT 7SM FEW002 SCT012 OVC021 17/17 A3000 RMK AO2 RAE2356 P0000 T01670167
KJST 270012Z AUTO 24004KT 2 1/2SM BR SCT002 BKN015 OVC021 17/17 A3000 RMK AO2 RAE2356 P0000 T01670167
KJST 270005Z AUTO 25004KT 6SM BR FEW003 BKN013 OVC021 17/17 A3000 RMK AO2 RAE2356 P0000 T01670167
KJST 262354Z AUTO 26004KT 10SM -RA OVC013 17/16 A3000 RMK AO2 RAB42 SLP154 P0000 60012 T01670161 10222 20167 53007
KJST 262335Z AUTO 20004KT 10SM BKN013 OVC028 17/16 A2999 RMK AO2 T01670161
KJST 262304Z AUTO 28006KT 10SM FEW006 BKN016 OVC023 17/16 A2998 RMK AO2 T01670161
KJST 262254Z AUTO 20004KT 10SM SCT014 BKN019 OVC036 17/16 A2998 RMK AO2 RAE22 SLP148 P0005 T01670161
KJST 262241Z AUTO 15005KT 10SM SCT014 BKN019 OVC036 17/16 A2998 RMK AO2 RAE22 P0005 T01670161
KJST 262217Z AUTO 14005KT 6SM -RA BR OVC014 17/16 A2997 RMK AO2 P0005 T01670161
KJST 262210Z AUTO 14005KT 2 1/2SM -RA BR OVC014 17/16 A2997 RMK AO2 VIS 1V5 LTG DSNT S P0005 T01670161
KJST 262154Z AUTO 14008KT 8SM -RA OVC015 17/16 A2997 RMK AO2 SLP146 P0004 T01720161
KJST 262152Z AUTO 15007KT 8SM -RA OVC015 17/17 A2998 RMK AO2 P0004
KJST 262107Z AUTO 09004KT 6SM -RA BR OVC014 18/17 A2997 RMK AO2 LTG DSNT SW P0001 T01780172
KJST 262054Z AUTO 10003KT 8SM -RA OVC016 18/17 A2997 RMK AO2 LTG DSNT S AND SW RAB1956 SLP143 P0003 60003 T01780172 55008
KJST 262008Z AUTO 34011G16KT 4SM RA BR BKN023 BKN043 BKN110 19/17 A2997 RMK AO2 LTG DSNT NE RAB1956 P0002 T01890167
KJST 261954Z AUTO 14007G15KT 10SM VCTS FEW036 SCT050 BKN085 19/16 A2995 RMK AO2 LTG DSNT N SLP136 T01940156
KJST 261854Z AUTO 16013G17KT 10SM FEW033 22/17 A2995 RMK AO2 LTG DSNT W AND NW SLP133 T02220167
KJST 261754Z AUTO 16008KT 10SM CLR 21/16 A2999 RMK AO2 SLP148 T02110161 10217 20133 58021
KJST 261654Z AUTO 14007KT 10SM CLR 21/16 A3003 RMK AO2 SLP161 T02060161
KJST 261554Z AUTO 16009KT 10SM FEW055 19/16 A3005 RMK AO2 SLP169 T01890156
KJST 261454Z AUTO 17010KT 10SM SCT009 17/15 A3006 RMK AO2 SLP174 T01720150 56007
KJST 261354Z AUTO 15008KT 10SM OVC007 16/14 A3006 RMK AO2 SLP176 T01610144
KJST 261315Z AUTO 16009KT 10SM OVC005 15/14 A3006 RMK AO2 T01500139
KJST 261254Z AUTO 16010KT 8SM OVC004 14/14 A3006 RMK AO2 SLP175 T01440139
KJST 261154Z AUTO 18007KT 5SM BR OVC004 13/13 A3008 RMK AO2 SLP183 T01330128 10133 20117 57002
KJST 261144Z AUTO 18010KT 5SM BR OVC004 13/13 A3008 RMK AO2 T01330128
KJST 261054Z AUTO 16007KT 8SM OVC005 13/12 A3008 RMK AO2 SLP181 T01280122
KJST 260954Z AUTO 18007KT 9SM OVC006 13/12 A3009 RMK AO2 SLP182 T01280117
KJST 260931Z AUTO 16007KT 10SM BKN007 12/11 A3008 RMK AO2 T01220111
KJST 260922Z AUTO 17006KT 10SM SCT008 12/11 A3009 RMK AO2 T01170111
KJST 260854Z AUTO 15006KT 10SM CLR 12/11 A3009 RMK AO2 SLP181 T01170106 56014
KJST 260754Z AUTO 15006KT 10SM CLR 12/10 A3009 RMK AO2 SLP184 T01220100
KJST 260654Z AUTO 15007KT 10SM CLR 12/08 A3011 RMK AO2 SLP192 T01220083
KJST 260554Z AUTO 17006KT 10SM CLR 13/08 A3013 RMK AO2 SLP199 T01280083 10161 20122 58007